sensor_id;sensor_type;location;lat;lon;timestamp;P1;durP1;ratioP1;P2;durP2;ratioP2
3274;SDS011;1649;53.672;10.064;2023-06-10T00:01:45;12.87;;;6.07;;
3274;SDS011;1649;53.672;10.064;2023-06-10T00:04:14;11.20;;;5.67;;
3274;SDS011;1649;53.672;10.064;2023-06-10T00:06:41;13.57;;;6.43;;
3274;SDS011;1649;53.672;10.064;2023-06-10T00:09:06;12.07;;;6.50;;
3274;SDS011;1649;53.672;10.064;2023-06-10T00:11:39;11.40;;;6.30;;
3274;SDS011;1649;53.672;10.064;2023-06-10T00:14:05;10.57;;;6.20;;
3274;SDS011;1649;53.672;10.064;2023-06-10T00:16:30;12.80;;;5.60;;
3274;SDS011;1649;53.672;10.064;2023-06-10T00:18:56;13.07;;;5.33;;
3274;SDS011;1649;53.672;10.064;2023-06-10T00:21:26;10.73;;;5.30;;
3274;SDS011;1649;53.672;10.064;2023-06-10T00:23:52;13.57;;;5.50;;
3274;SDS011;1649;53.672;10.064;2023-06-10T00:26:18;13.70;;;5.70;;
3274;SDS011;1649;53.672;10.064;2023-06-10T00:28:43;11.07;;;5.67;;
3274;SDS011;1649;53.672;10.064;2023-06-10T00:31:10;11.43;;;5.50;;
3274;SDS011;1649;53.672;10.064;2023-06-10T00:33:35;10.27;;;5.40;;
3274;SDS011;1649;53.672;10.064;2023-06-10T00:36:01;14.23;;;5.57;;
3274;SDS011;1649;53.672;10.064;2023-06-10T00:38:26;13.03;;;5.03;;
3274;SDS011;1649;53.672;10.064;2023-06-10T00:40:52;11.30;;;5.57;;
3274;SDS011;1649;53.672;10.064;2023-06-10T00:43:17;10.33;;;4.63;;
3274;SDS011;1649;53.672;10.064;2023-06-10T00:45:43;10.90;;;5.40;;
3274;SDS011;1649;53.672;10.064;2023-06-10T00:48:08;10.50;;;5.40;;
3274;SDS011;1649;53.672;10.064;2023-06-10T00:50:35;9.10;;;4.80;;
3274;SDS011;1649;53.672;10.064;2023-06-10T00:53:04;9.17;;;5.03;;
3274;SDS011;1649;53.672;10.064;2023-06-10T00:55:30;9.63;;;4.50;;
3274;SDS011;1649;53.672;10.064;2023-06-10T00:57:57;9.63;;;4.33;;
3274;SDS011;1649;53.672;10.064;2023-06-10T01:00:23;16.03;;;4.73;;
3274;SDS011;1649;53.672;10.064;2023-06-10T01:02:49;10.90;;;5.10;;
3274;SDS011;1649;53.672;10.064;2023-06-10T01:05:17;8.43;;;4.03;;
3274;SDS011;1649;53.672;10.064;2023-06-10T01:07:48;11.60;;;4.50;;
3274;SDS011;1649;53.672;10.064;2023-06-10T01:10:48;9.33;;;4.63;;
3274;SDS011;1649;53.672;10.064;2023-06-10T01:13:14;9.43;;;4.80;;
3274;SDS011;1649;53.672;10.064;2023-06-10T01:15:40;9.50;;;5.10;;
3274;SDS011;1649;53.672;10.064;2023-06-10T01:18:07;10.50;;;5.30;;
3274;SDS011;1649;53.672;10.064;2023-06-10T01:20:34;10.07;;;4.33;;
3274;SDS011;1649;53.672;10.064;2023-06-10T01:23:05;11.17;;;5.17;;
3274;SDS011;1649;53.672;10.064;2023-06-10T01:25:31;8.73;;;4.63;;
3274;SDS011;1649;53.672;10.064;2023-06-10T01:28:12;9.70;;;4.57;;
3274;SDS011;1649;53.672;10.064;2023-06-10T01:31:13;12.27;;;4.70;;
3274;SDS011;1649;53.672;10.064;2023-06-10T01:33:45;9.83;;;5.07;;
3274;SDS011;1649;53.672;10.064;2023-06-10T01:36:13;10.53;;;4.90;;
3274;SDS011;1649;53.672;10.064;2023-06-10T01:38:42;11.30;;;4.27;;
3274;SDS011;1649;53.672;10.064;2023-06-10T01:41:12;8.80;;;4.80;;
3274;SDS011;1649;53.672;10.064;2023-06-10T01:43:40;9.43;;;4.10;;
3274;SDS011;1649;53.672;10.064;2023-06-10T01:46:07;11.60;;;4.90;;
3274;SDS011;1649;53.672;10.064;2023-06-10T01:48:33;14.80;;;4.20;;
3274;SDS011;1649;53.672;10.064;2023-06-10T01:50:58;9.83;;;4.13;;
3274;SDS011;1649;53.672;10.064;2023-06-10T01:53:24;10.17;;;4.40;;
3274;SDS011;1649;53.672;10.064;2023-06-10T01:55:50;11.07;;;4.17;;
3274;SDS011;1649;53.672;10.064;2023-06-10T01:58:15;15.00;;;4.43;;
3274;SDS011;1649;53.672;10.064;2023-06-10T02:00:41;9.13;;;4.37;;
3274;SDS011;1649;53.672;10.064;2023-06-10T02:03:06;9.30;;;3.90;;
3274;SDS011;1649;53.672;10.064;2023-06-10T02:05:32;11.30;;;4.30;;
3274;SDS011;1649;53.672;10.064;2023-06-10T02:07:57;12.17;;;4.50;;
3274;SDS011;1649;53.672;10.064;2023-06-10T02:10:23;7.20;;;4.13;;
3274;SDS011;1649;53.672;10.064;2023-06-10T02:12:49;12.80;;;4.10;;
3274;SDS011;1649;53.672;10.064;2023-06-10T02:15:14;9.40;;;4.17;;
3274;SDS011;1649;53.672;10.064;2023-06-10T02:17:40;8.93;;;3.90;;
3274;SDS011;1649;53.672;10.064;2023-06-10T02:20:05;10.33;;;4.60;;
3274;SDS011;1649;53.672;10.064;2023-06-10T02:22:32;8.60;;;4.20;;
3274;SDS011;1649;53.672;10.064;2023-06-10T02:24:58;9.53;;;3.90;;
3274;SDS011;1649;53.672;10.064;2023-06-10T02:27:24;9.40;;;3.83;;
3274;SDS011;1649;53.672;10.064;2023-06-10T02:29:50;9.70;;;4.10;;
3274;SDS011;1649;53.672;10.064;2023-06-10T02:32:15;10.00;;;4.00;;
3274;SDS011;1649;53.672;10.064;2023-06-10T02:34:41;10.13;;;4.13;;
3274;SDS011;1649;53.672;10.064;2023-06-10T02:37:07;9.17;;;4.80;;
3274;SDS011;1649;53.672;10.064;2023-06-10T02:39:34;9.10;;;4.33;;
3274;SDS011;1649;53.672;10.064;2023-06-10T02:41:59;9.07;;;3.80;;
3274;SDS011;1649;53.672;10.064;2023-06-10T02:44:25;8.63;;;4.20;;
3274;SDS011;1649;53.672;10.064;2023-06-10T02:46:50;10.33;;;3.93;;
3274;SDS011;1649;53.672;10.064;2023-06-10T02:49:16;10.13;;;3.90;;
3274;SDS011;1649;53.672;10.064;2023-06-10T02:51:41;8.53;;;3.90;;
3274;SDS011;1649;53.672;10.064;2023-06-10T02:54:07;7.63;;;4.30;;
3274;SDS011;1649;53.672;10.064;2023-06-10T02:56:32;9.40;;;4.37;;
3274;SDS011;1649;53.672;10.064;2023-06-10T02:58:58;7.43;;;3.90;;
3274;SDS011;1649;53.672;10.064;2023-06-10T03:01:24;8.37;;;4.07;;
3274;SDS011;1649;53.672;10.064;2023-06-10T03:03:49;8.90;;;4.60;;
3274;SDS011;1649;53.672;10.064;2023-06-10T03:06:15;9.40;;;4.17;;
3274;SDS011;1649;53.672;10.064;2023-06-10T03:08:41;8.23;;;3.60;;
3274;SDS011;1649;53.672;10.064;2023-06-10T03:11:07;7.40;;;4.07;;
3274;SDS011;1649;53.672;10.064;2023-06-10T03:13:33;11.43;;;4.80;;
3274;SDS011;1649;53.672;10.064;2023-06-10T03:15:59;7.90;;;3.87;;
3274;SDS011;1649;53.672;10.064;2023-06-10T03:18:26;8.80;;;4.00;;
3274;SDS011;1649;53.672;10.064;2023-06-10T03:20:52;8.80;;;5.07;;
3274;SDS011;1649;53.672;10.064;2023-06-10T03:23:18;6.73;;;3.70;;
3274;SDS011;1649;53.672;10.064;2023-06-10T03:25:44;7.40;;;4.07;;
3274;SDS011;1649;53.672;10.064;2023-06-10T03:28:10;8.23;;;4.10;;
3274;SDS011;1649;53.672;10.064;2023-06-10T03:30:36;10.20;;;4.57;;
3274;SDS011;1649;53.672;10.064;2023-06-10T03:33:01;7.57;;;3.90;;
3274;SDS011;1649;53.672;10.064;2023-06-10T03:35:27;7.90;;;4.17;;
3274;SDS011;1649;53.672;10.064;2023-06-10T03:37:52;12.03;;;4.30;;
3274;SDS011;1649;53.672;10.064;2023-06-10T03:40:18;9.33;;;4.67;;
3274;SDS011;1649;53.672;10.064;2023-06-10T03:42:43;8.87;;;4.10;;
3274;SDS011;1649;53.672;10.064;2023-06-10T03:45:09;8.93;;;4.23;;
3274;SDS011;1649;53.672;10.064;2023-06-10T03:47:35;9.03;;;4.40;;
3274;SDS011;1649;53.672;10.064;2023-06-10T03:50:05;8.50;;;4.40;;
3274;SDS011;1649;53.672;10.064;2023-06-10T03:52:31;12.17;;;4.30;;
3274;SDS011;1649;53.672;10.064;2023-06-10T03:54:57;8.30;;;4.20;;
3274;SDS011;1649;53.672;10.064;2023-06-10T03:57:22;9.40;;;4.83;;
3274;SDS011;1649;53.672;10.064;2023-06-10T03:59:48;12.27;;;4.60;;
3274;SDS011;1649;53.672;10.064;2023-06-10T04:02:13;7.20;;;3.70;;
3274;SDS011;1649;53.672;10.064;2023-06-10T04:04:39;9.13;;;4.33;;
3274;SDS011;1649;53.672;10.064;2023-06-10T04:07:05;8.20;;;4.10;;
3274;SDS011;1649;53.672;10.064;2023-06-10T04:09:31;9.37;;;4.60;;
3274;SDS011;1649;53.672;10.064;2023-06-10T04:11:57;9.73;;;3.63;;
3274;SDS011;1649;53.672;10.064;2023-06-10T04:14:22;10.90;;;4.40;;
3274;SDS011;1649;53.672;10.064;2023-06-10T04:16:48;8.97;;;4.20;;
3274;SDS011;1649;53.672;10.064;2023-06-10T04:19:15;9.20;;;4.07;;
3274;SDS011;1649;53.672;10.064;2023-06-10T04:21:41;10.10;;;4.70;;
3274;SDS011;1649;53.672;10.064;2023-06-10T04:24:07;9.57;;;4.50;;
3274;SDS011;1649;53.672;10.064;2023-06-10T04:26:32;9.13;;;4.50;;
3274;SDS011;1649;53.672;10.064;2023-06-10T04:28:59;8.97;;;3.90;;
3274;SDS011;1649;53.672;10.064;2023-06-10T04:31:25;8.10;;;4.00;;
3274;SDS011;1649;53.672;10.064;2023-06-10T04:33:51;9.37;;;4.03;;
3274;SDS011;1649;53.672;10.064;2023-06-10T04:36:16;12.50;;;4.40;;
3274;SDS011;1649;53.672;10.064;2023-06-10T04:38:42;9.60;;;4.13;;
3274;SDS011;1649;53.672;10.064;2023-06-10T04:41:08;10.57;;;4.17;;
3274;SDS011;1649;53.672;10.064;2023-06-10T04:43:33;9.43;;;4.47;;
3274;SDS011;1649;53.672;10.064;2023-06-10T04:45:59;10.17;;;4.20;;
3274;SDS011;1649;53.672;10.064;2023-06-10T04:48:24;8.37;;;3.80;;
3274;SDS011;1649;53.672;10.064;2023-06-10T04:50:50;14.30;;;3.90;;
3274;SDS011;1649;53.672;10.064;2023-06-10T04:53:15;9.57;;;3.60;;
3274;SDS011;1649;53.672;10.064;2023-06-10T04:55:41;9.03;;;4.20;;
3274;SDS011;1649;53.672;10.064;2023-06-10T04:58:07;11.00;;;3.20;;
3274;SDS011;1649;53.672;10.064;2023-06-10T05:00:32;10.77;;;3.90;;
3274;SDS011;1649;53.672;10.064;2023-06-10T05:02:58;10.63;;;4.00;;
3274;SDS011;1649;53.672;10.064;2023-06-10T05:05:23;8.03;;;3.50;;
3274;SDS011;1649;53.672;10.064;2023-06-10T05:07:49;9.00;;;4.00;;
3274;SDS011;1649;53.672;10.064;2023-06-10T05:10:14;11.77;;;4.27;;
3274;SDS011;1649;53.672;10.064;2023-06-10T05:12:40;13.20;;;4.17;;
3274;SDS011;1649;53.672;10.064;2023-06-10T05:15:06;8.33;;;3.27;;
3274;SDS011;1649;53.672;10.064;2023-06-10T05:17:32;10.50;;;3.80;;
3274;SDS011;1649;53.672;10.064;2023-06-10T05:19:59;8.40;;;3.27;;
3274;SDS011;1649;53.672;10.064;2023-06-10T05:22:25;9.43;;;3.10;;
3274;SDS011;1649;53.672;10.064;2023-06-10T05:24:52;8.40;;;3.00;;
3274;SDS011;1649;53.672;10.064;2023-06-10T05:27:18;11.67;;;3.27;;
3274;SDS011;1649;53.672;10.064;2023-06-10T05:29:44;10.80;;;3.20;;
3274;SDS011;1649;53.672;10.064;2023-06-10T05:32:10;12.23;;;3.37;;
3274;SDS011;1649;53.672;10.064;2023-06-10T05:34:36;7.47;;;3.13;;
3274;SDS011;1649;53.672;10.064;2023-06-10T05:37:02;10.20;;;3.33;;
3274;SDS011;1649;53.672;10.064;2023-06-10T05:39:27;9.67;;;3.00;;
3274;SDS011;1649;53.672;10.064;2023-06-10T05:41:53;9.63;;;3.10;;
3274;SDS011;1649;53.672;10.064;2023-06-10T05:44:18;8.27;;;2.47;;
3274;SDS011;1649;53.672;10.064;2023-06-10T05:46:44;9.23;;;2.67;;
3274;SDS011;1649;53.672;10.064;2023-06-10T05:49:09;6.93;;;2.20;;
3274;SDS011;1649;53.672;10.064;2023-06-10T05:51:35;8.73;;;2.80;;
3274;SDS011;1649;53.672;10.064;2023-06-10T05:54:01;7.03;;;2.70;;
3274;SDS011;1649;53.672;10.064;2023-06-10T05:56:27;8.90;;;2.70;;
3274;SDS011;1649;53.672;10.064;2023-06-10T05:58:53;10.07;;;2.53;;
3274;SDS011;1649;53.672;10.064;2023-06-10T06:01:18;10.20;;;2.70;;
3274;SDS011;1649;53.672;10.064;2023-06-10T06:03:44;9.17;;;2.90;;
3274;SDS011;1649;53.672;10.064;2023-06-10T06:06:09;9.67;;;2.77;;
3274;SDS011;1649;53.672;10.064;2023-06-10T06:08:35;9.70;;;2.83;;
3274;SDS011;1649;53.672;10.064;2023-06-10T06:11:00;10.87;;;2.70;;
3274;SDS011;1649;53.672;10.064;2023-06-10T06:13:26;11.40;;;2.70;;
3274;SDS011;1649;53.672;10.064;2023-06-10T06:15:51;7.63;;;2.40;;
3274;SDS011;1649;53.672;10.064;2023-06-10T06:18:17;7.73;;;2.53;;
3274;SDS011;1649;53.672;10.064;2023-06-10T06:20:43;9.60;;;2.60;;
3274;SDS011;1649;53.672;10.064;2023-06-10T06:23:09;7.83;;;2.50;;
3274;SDS011;1649;53.672;10.064;2023-06-10T06:25:35;8.00;;;2.50;;
3274;SDS011;1649;53.672;10.064;2023-06-10T06:28:02;8.73;;;2.47;;
3274;SDS011;1649;53.672;10.064;2023-06-10T06:30:27;9.10;;;2.70;;
3274;SDS011;1649;53.672;10.064;2023-06-10T06:32:53;11.57;;;2.57;;
3274;SDS011;1649;53.672;10.064;2023-06-10T06:35:18;7.03;;;2.30;;
3274;SDS011;1649;53.672;10.064;2023-06-10T06:37:44;9.60;;;2.80;;
3274;SDS011;1649;53.672;10.064;2023-06-10T06:40:10;8.33;;;2.83;;
3274;SDS011;1649;53.672;10.064;2023-06-10T06:42:35;6.87;;;2.40;;
3274;SDS011;1649;53.672;10.064;2023-06-10T06:45:01;6.80;;;2.20;;
3274;SDS011;1649;53.672;10.064;2023-06-10T06:47:27;11.60;;;3.03;;
3274;SDS011;1649;53.672;10.064;2023-06-10T06:49:52;10.87;;;3.50;;
3274;SDS011;1649;53.672;10.064;2023-06-10T06:52:18;9.53;;;2.80;;
3274;SDS011;1649;53.672;10.064;2023-06-10T06:54:44;7.93;;;2.60;;
3274;SDS011;1649;53.672;10.064;2023-06-10T06:57:09;24.77;;;3.43;;
3274;SDS011;1649;53.672;10.064;2023-06-10T06:59:35;9.33;;;2.53;;
3274;SDS011;1649;53.672;10.064;2023-06-10T07:02:01;9.00;;;2.30;;
3274;SDS011;1649;53.672;10.064;2023-06-10T07:04:26;7.00;;;3.10;;
3274;SDS011;1649;53.672;10.064;2023-06-10T07:06:52;11.53;;;3.60;;
3274;SDS011;1649;53.672;10.064;2023-06-10T07:09:17;10.00;;;3.40;;
3274;SDS011;1649;53.672;10.064;2023-06-10T07:11:42;10.57;;;2.80;;
3274;SDS011;1649;53.672;10.064;2023-06-10T07:14:08;7.13;;;3.03;;
3274;SDS011;1649;53.672;10.064;2023-06-10T07:16:34;9.10;;;3.03;;
3274;SDS011;1649;53.672;10.064;2023-06-10T07:18:59;13.97;;;2.80;;
3274;SDS011;1649;53.672;10.064;2023-06-10T07:21:25;8.60;;;3.10;;
3274;SDS011;1649;53.672;10.064;2023-06-10T07:23:50;9.80;;;2.67;;
3274;SDS011;1649;53.672;10.064;2023-06-10T07:26:19;7.73;;;2.87;;
3274;SDS011;1649;53.672;10.064;2023-06-10T07:28:46;9.40;;;2.73;;
3274;SDS011;1649;53.672;10.064;2023-06-10T07:31:12;8.93;;;2.40;;
3274;SDS011;1649;53.672;10.064;2023-06-10T07:33:37;12.80;;;2.93;;
3274;SDS011;1649;53.672;10.064;2023-06-10T07:36:06;6.20;;;2.20;;
3274;SDS011;1649;53.672;10.064;2023-06-10T07:38:32;8.83;;;2.50;;
3274;SDS011;1649;53.672;10.064;2023-06-10T07:40:57;6.80;;;2.50;;
3274;SDS011;1649;53.672;10.064;2023-06-10T07:43:23;10.27;;;2.67;;
3274;SDS011;1649;53.672;10.064;2023-06-10T07:45:49;6.20;;;2.60;;
3274;SDS011;1649;53.672;10.064;2023-06-10T07:48:15;8.00;;;2.73;;
3274;SDS011;1649;53.672;10.064;2023-06-10T07:50:40;8.33;;;2.40;;
3274;SDS011;1649;53.672;10.064;2023-06-10T07:53:06;8.10;;;2.53;;
3274;SDS011;1649;53.672;10.064;2023-06-10T07:55:31;8.27;;;2.30;;
3274;SDS011;1649;53.672;10.064;2023-06-10T07:57:57;6.10;;;2.50;;
3274;SDS011;1649;53.672;10.064;2023-06-10T08:00:23;8.03;;;2.70;;
3274;SDS011;1649;53.672;10.064;2023-06-10T08:02:48;6.27;;;2.57;;
3274;SDS011;1649;53.672;10.064;2023-06-10T08:05:15;10.17;;;2.77;;
3274;SDS011;1649;53.672;10.064;2023-06-10T08:07:41;7.90;;;2.93;;
3274;SDS011;1649;53.672;10.064;2023-06-10T08:10:06;10.57;;;2.70;;
3274;SDS011;1649;53.672;10.064;2023-06-10T08:12:33;7.57;;;2.53;;
3274;SDS011;1649;53.672;10.064;2023-06-10T08:14:58;8.60;;;2.60;;
3274;SDS011;1649;53.672;10.064;2023-06-10T08:17:24;7.30;;;2.80;;
3274;SDS011;1649;53.672;10.064;2023-06-10T08:19:50;7.80;;;3.00;;
3274;SDS011;1649;53.672;10.064;2023-06-10T08:22:16;8.80;;;2.90;;
3274;SDS011;1649;53.672;10.064;2023-06-10T08:24:41;9.57;;;2.70;;
3274;SDS011;1649;53.672;10.064;2023-06-10T08:27:07;8.20;;;2.63;;
3274;SDS011;1649;53.672;10.064;2023-06-10T08:29:32;5.80;;;2.67;;
3274;SDS011;1649;53.672;10.064;2023-06-10T08:31:58;7.70;;;2.80;;
3274;SDS011;1649;53.672;10.064;2023-06-10T08:34:24;134.93;;;8.20;;
3274;SDS011;1649;53.672;10.064;2023-06-10T08:36:49;12.40;;;3.37;;
3274;SDS011;1649;53.672;10.064;2023-06-10T08:39:18;13.77;;;3.00;;
3274;SDS011;1649;53.672;10.064;2023-06-10T08:41:46;7.80;;;2.90;;
3274;SDS011;1649;53.672;10.064;2023-06-10T08:44:27;7.27;;;3.10;;
3274;SDS011;1649;53.672;10.064;2023-06-10T08:46:55;8.03;;;2.50;;
3274;SDS011;1649;53.672;10.064;2023-06-10T08:49:23;9.37;;;3.20;;
3274;SDS011;1649;53.672;10.064;2023-06-10T08:51:52;10.70;;;3.43;;
3274;SDS011;1649;53.672;10.064;2023-06-10T08:54:25;6.33;;;3.03;;
3274;SDS011;1649;53.672;10.064;2023-06-10T08:56:54;6.87;;;2.63;;
3274;SDS011;1649;53.672;10.064;2023-06-10T08:59:22;9.77;;;3.00;;
3274;SDS011;1649;53.672;10.064;2023-06-10T09:01:48;8.07;;;3.17;;
3274;SDS011;1649;53.672;10.064;2023-06-10T09:04:14;9.40;;;3.13;;
3274;SDS011;1649;53.672;10.064;2023-06-10T09:06:42;7.30;;;3.37;;
3274;SDS011;1649;53.672;10.064;2023-06-10T09:09:09;6.03;;;3.10;;
3274;SDS011;1649;53.672;10.064;2023-06-10T09:11:35;9.77;;;3.57;;
3274;SDS011;1649;53.672;10.064;2023-06-10T09:14:02;7.77;;;3.13;;
3274;SDS011;1649;53.672;10.064;2023-06-10T09:16:28;10.20;;;3.13;;
3274;SDS011;1649;53.672;10.064;2023-06-10T09:18:53;9.20;;;3.20;;
3274;SDS011;1649;53.672;10.064;2023-06-10T09:21:21;10.60;;;3.20;;
3274;SDS011;1649;53.672;10.064;2023-06-10T09:23:50;6.90;;;3.00;;
3274;SDS011;1649;53.672;10.064;2023-06-10T09:26:17;7.30;;;3.10;;
3274;SDS011;1649;53.672;10.064;2023-06-10T09:28:43;13.87;;;3.20;;
3274;SDS011;1649;53.672;10.064;2023-06-10T09:31:15;8.57;;;3.37;;
3274;SDS011;1649;53.672;10.064;2023-06-10T09:33:44;10.17;;;3.80;;
3274;SDS011;1649;53.672;10.064;2023-06-10T09:36:10;9.23;;;3.30;;
3274;SDS011;1649;53.672;10.064;2023-06-10T09:38:36;18.80;;;3.23;;
3274;SDS011;1649;53.672;10.064;2023-06-10T09:41:02;8.10;;;3.33;;
3274;SDS011;1649;53.672;10.064;2023-06-10T09:43:44;8.00;;;3.13;;
3274;SDS011;1649;53.672;10.064;2023-06-10T09:46:17;7.30;;;3.00;;
3274;SDS011;1649;53.672;10.064;2023-06-10T09:48:44;8.70;;;3.30;;
3274;SDS011;1649;53.672;10.064;2023-06-10T09:51:11;9.47;;;3.40;;
3274;SDS011;1649;53.672;10.064;2023-06-10T09:53:38;8.03;;;3.53;;
3274;SDS011;1649;53.672;10.064;2023-06-10T09:56:04;9.23;;;3.40;;
3274;SDS011;1649;53.672;10.064;2023-06-10T09:58:37;6.90;;;2.80;;
3274;SDS011;1649;53.672;10.064;2023-06-10T10:01:04;10.80;;;3.83;;
3274;SDS011;1649;53.672;10.064;2023-06-10T10:03:31;7.87;;;3.17;;
3274;SDS011;1649;53.672;10.064;2023-06-10T10:06:00;8.87;;;3.23;;
3274;SDS011;1649;53.672;10.064;2023-06-10T10:08:26;9.33;;;3.40;;
3274;SDS011;1649;53.672;10.064;2023-06-10T10:10:51;9.37;;;3.30;;
3274;SDS011;1649;53.672;10.064;2023-06-10T10:13:17;10.13;;;3.43;;
3274;SDS011;1649;53.672;10.064;2023-06-10T10:15:43;8.60;;;3.30;;
3274;SDS011;1649;53.672;10.064;2023-06-10T10:18:10;8.23;;;3.50;;
3274;SDS011;1649;53.672;10.064;2023-06-10T10:20:50;8.93;;;3.50;;
3274;SDS011;1649;53.672;10.064;2023-06-10T10:23:18;8.80;;;4.00;;
3274;SDS011;1649;53.672;10.064;2023-06-10T10:25:51;9.23;;;3.83;;
3274;SDS011;1649;53.672;10.064;2023-06-10T10:28:18;7.57;;;3.73;;
3274;SDS011;1649;53.672;10.064;2023-06-10T10:30:47;9.03;;;3.90;;
3274;SDS011;1649;53.672;10.064;2023-06-10T10:33:18;9.60;;;4.07;;
3274;SDS011;1649;53.672;10.064;2023-06-10T10:35:48;11.57;;;3.73;;
3274;SDS011;1649;53.672;10.064;2023-06-10T10:38:14;8.30;;;3.50;;
3274;SDS011;1649;53.672;10.064;2023-06-10T10:40:40;8.93;;;3.50;;
3274;SDS011;1649;53.672;10.064;2023-06-10T10:43:06;8.47;;;3.57;;
3274;SDS011;1649;53.672;10.064;2023-06-10T10:45:33;9.03;;;3.97;;
3274;SDS011;1649;53.672;10.064;2023-06-10T10:47:59;10.83;;;3.63;;
3274;SDS011;1649;53.672;10.064;2023-06-10T10:50:33;11.70;;;3.47;;
3274;SDS011;1649;53.672;10.064;2023-06-10T10:53:00;11.20;;;3.53;;
3274;SDS011;1649;53.672;10.064;2023-06-10T10:55:27;9.33;;;3.50;;
3274;SDS011;1649;53.672;10.064;2023-06-10T10:57:57;9.30;;;3.80;;
3274;SDS011;1649;53.672;10.064;2023-06-10T11:00:24;8.17;;;3.70;;
3274;SDS011;1649;53.672;10.064;2023-06-10T11:02:52;6.20;;;3.57;;
3274;SDS011;1649;53.672;10.064;2023-06-10T11:05:19;8.77;;;3.77;;
3274;SDS011;1649;53.672;10.064;2023-06-10T11:08:03;8.47;;;3.60;;
3274;SDS011;1649;53.672;10.064;2023-06-10T11:10:30;9.90;;;3.63;;
3274;SDS011;1649;53.672;10.064;2023-06-10T11:13:15;8.90;;;4.17;;
3274;SDS011;1649;53.672;10.064;2023-06-10T11:15:46;15.20;;;4.20;;
3274;SDS011;1649;53.672;10.064;2023-06-10T11:18:22;14.13;;;4.30;;
3274;SDS011;1649;53.672;10.064;2023-06-10T11:23:24;10.13;;;3.90;;
3274;SDS011;1649;53.672;10.064;2023-06-10T11:25:50;7.80;;;3.97;;
3274;SDS011;1649;53.672;10.064;2023-06-10T11:28:19;9.40;;;4.40;;
3274;SDS011;1649;53.672;10.064;2023-06-10T11:30:45;9.33;;;3.97;;
3274;SDS011;1649;53.672;10.064;2023-06-10T11:33:17;9.27;;;4.67;;
3274;SDS011;1649;53.672;10.064;2023-06-10T11:35:43;9.57;;;4.17;;
3274;SDS011;1649;53.672;10.064;2023-06-10T11:38:09;8.60;;;4.67;;
3274;SDS011;1649;53.672;10.064;2023-06-10T11:40:36;9.73;;;4.30;;
3274;SDS011;1649;53.672;10.064;2023-06-10T11:43:03;12.00;;;4.03;;
3274;SDS011;1649;53.672;10.064;2023-06-10T11:45:29;8.90;;;4.00;;
3274;SDS011;1649;53.672;10.064;2023-06-10T11:47:55;7.33;;;3.80;;
3274;SDS011;1649;53.672;10.064;2023-06-10T11:50:33;14.43;;;4.50;;
3274;SDS011;1649;53.672;10.064;2023-06-10T11:52:59;9.60;;;3.53;;
3274;SDS011;1649;53.672;10.064;2023-06-10T11:55:44;7.00;;;4.00;;
3274;SDS011;1649;53.672;10.064;2023-06-10T11:58:18;9.63;;;3.73;;
3274;SDS011;1649;53.672;10.064;2023-06-10T12:00:47;9.50;;;4.22;;
3274;SDS011;1649;53.672;10.064;2023-06-10T12:03:14;7.63;;;3.97;;
3274;SDS011;1649;53.672;10.064;2023-06-10T12:05:40;10.47;;;4.40;;
3274;SDS011;1649;53.672;10.064;2023-06-10T12:08:26;12.73;;;4.80;;
3274;SDS011;1649;53.672;10.064;2023-06-10T12:10:52;14.00;;;4.20;;
3274;SDS011;1649;53.672;10.064;2023-06-10T12:13:18;10.57;;;4.40;;
3274;SDS011;1649;53.672;10.064;2023-06-10T12:15:44;10.20;;;3.70;;
3274;SDS011;1649;53.672;10.064;2023-06-10T12:18:19;9.00;;;4.10;;
3274;SDS011;1649;53.672;10.064;2023-06-10T12:20:45;9.00;;;3.90;;
3274;SDS011;1649;53.672;10.064;2023-06-10T12:23:11;9.27;;;4.80;;
3274;SDS011;1649;53.672;10.064;2023-06-10T12:25:38;8.40;;;4.10;;
3274;SDS011;1649;53.672;10.064;2023-06-10T12:28:04;12.10;;;4.57;;
3274;SDS011;1649;53.672;10.064;2023-06-10T12:30:30;8.10;;;3.83;;
3274;SDS011;1649;53.672;10.064;2023-06-10T12:32:57;11.50;;;4.40;;
3274;SDS011;1649;53.672;10.064;2023-06-10T12:35:23;8.80;;;3.77;;
3274;SDS011;1649;53.672;10.064;2023-06-10T12:37:56;9.17;;;4.10;;
3274;SDS011;1649;53.672;10.064;2023-06-10T12:40:28;10.13;;;4.43;;
3274;SDS011;1649;53.672;10.064;2023-06-10T12:42:54;9.30;;;4.57;;
3274;SDS011;1649;53.672;10.064;2023-06-10T12:45:30;9.70;;;4.43;;
3274;SDS011;1649;53.672;10.064;2023-06-10T12:50:38;9.23;;;4.20;;
3274;SDS011;1649;53.672;10.064;2023-06-10T12:53:05;12.53;;;4.30;;
3274;SDS011;1649;53.672;10.064;2023-06-10T12:55:31;9.57;;;4.00;;
3274;SDS011;1649;53.672;10.064;2023-06-10T12:57:58;11.53;;;3.97;;
3274;SDS011;1649;53.672;10.064;2023-06-10T13:00:26;10.97;;;4.10;;
3274;SDS011;1649;53.672;10.064;2023-06-10T13:02:54;9.53;;;3.57;;
3274;SDS011;1649;53.672;10.064;2023-06-10T13:05:25;9.70;;;4.00;;
3274;SDS011;1649;53.672;10.064;2023-06-10T13:07:51;9.77;;;3.87;;
3274;SDS011;1649;53.672;10.064;2023-06-10T13:10:16;9.90;;;3.80;;
3274;SDS011;1649;53.672;10.064;2023-06-10T13:12:43;11.70;;;3.77;;
3274;SDS011;1649;53.672;10.064;2023-06-10T13:15:09;10.90;;;3.50;;
3274;SDS011;1649;53.672;10.064;2023-06-10T13:17:35;8.63;;;3.30;;
3274;SDS011;1649;53.672;10.064;2023-06-10T13:20:05;10.90;;;3.70;;
3274;SDS011;1649;53.672;10.064;2023-06-10T13:22:32;8.73;;;3.60;;
3274;SDS011;1649;53.672;10.064;2023-06-10T13:24:59;11.20;;;3.90;;
3274;SDS011;1649;53.672;10.064;2023-06-10T13:27:25;10.10;;;4.07;;
3274;SDS011;1649;53.672;10.064;2023-06-10T13:29:52;9.33;;;3.70;;
3274;SDS011;1649;53.672;10.064;2023-06-10T13:32:17;9.83;;;4.10;;
3274;SDS011;1649;53.672;10.064;2023-06-10T13:34:43;9.87;;;4.07;;
3274;SDS011;1649;53.672;10.064;2023-06-10T13:37:09;8.57;;;3.63;;
3274;SDS011;1649;53.672;10.064;2023-06-10T13:39:34;8.20;;;3.30;;
3274;SDS011;1649;53.672;10.064;2023-06-10T13:42:00;11.57;;;4.30;;
3274;SDS011;1649;53.672;10.064;2023-06-10T13:44:25;9.00;;;3.10;;
3274;SDS011;1649;53.672;10.064;2023-06-10T13:46:51;10.43;;;3.80;;
3274;SDS011;1649;53.672;10.064;2023-06-10T13:49:17;9.60;;;3.13;;
3274;SDS011;1649;53.672;10.064;2023-06-10T13:51:42;8.80;;;3.53;;
3274;SDS011;1649;53.672;10.064;2023-06-10T13:54:07;10.50;;;3.30;;
3274;SDS011;1649;53.672;10.064;2023-06-10T13:56:33;12.40;;;3.60;;
3274;SDS011;1649;53.672;10.064;2023-06-10T13:59:03;10.20;;;3.23;;
3274;SDS011;1649;53.672;10.064;2023-06-10T14:01:28;12.07;;;3.27;;
3274;SDS011;1649;53.672;10.064;2023-06-10T14:03:54;9.50;;;3.57;;
3274;SDS011;1649;53.672;10.064;2023-06-10T14:06:19;8.20;;;3.40;;
3274;SDS011;1649;53.672;10.064;2023-06-10T14:08:45;11.73;;;4.60;;
3274;SDS011;1649;53.672;10.064;2023-06-10T14:11:10;10.30;;;5.03;;
3274;SDS011;1649;53.672;10.064;2023-06-10T14:13:36;12.97;;;5.10;;
3274;SDS011;1649;53.672;10.064;2023-06-10T14:16:03;12.00;;;4.67;;
3274;SDS011;1649;53.672;10.064;2023-06-10T14:18:29;7.40;;;3.90;;
3274;SDS011;1649;53.672;10.064;2023-06-10T14:20:55;13.83;;;4.77;;
3274;SDS011;1649;53.672;10.064;2023-06-10T14:23:20;12.47;;;4.10;;
3274;SDS011;1649;53.672;10.064;2023-06-10T14:25:46;15.83;;;5.10;;
3274;SDS011;1649;53.672;10.064;2023-06-10T14:28:12;9.43;;;4.37;;
3274;SDS011;1649;53.672;10.064;2023-06-10T14:30:38;10.40;;;5.13;;
3274;SDS011;1649;53.672;10.064;2023-06-10T14:33:04;13.30;;;5.13;;
3274;SDS011;1649;53.672;10.064;2023-06-10T14:35:30;10.83;;;5.73;;
3274;SDS011;1649;53.672;10.064;2023-06-10T14:37:56;15.87;;;6.87;;
3274;SDS011;1649;53.672;10.064;2023-06-10T14:40:21;12.93;;;5.90;;
3274;SDS011;1649;53.672;10.064;2023-06-10T14:42:49;12.03;;;4.80;;
3274;SDS011;1649;53.672;10.064;2023-06-10T14:45:14;8.60;;;4.43;;
3274;SDS011;1649;53.672;10.064;2023-06-10T14:47:40;11.33;;;5.30;;
3274;SDS011;1649;53.672;10.064;2023-06-10T14:50:06;11.00;;;5.77;;
3274;SDS011;1649;53.672;10.064;2023-06-10T14:52:32;13.17;;;5.93;;
3274;SDS011;1649;53.672;10.064;2023-06-10T14:54:57;9.80;;;5.00;;
3274;SDS011;1649;53.672;10.064;2023-06-10T14:57:22;12.57;;;5.50;;
3274;SDS011;1649;53.672;10.064;2023-06-10T14:59:48;10.67;;;3.93;;